Terminal Aerodrome Forecast
Issued by NWS

Home | Current Version | Previous Version | Text Only | Print | Product List | Glossary On
Versions: 1 2 3 4 5 6 7 8 9 10 11 12 13 14 15
000
FTAK31 PAJN 302300
TAFAYA
TAF
PAYA 302327Z 3100/3124 16007KT P6SM -RA FEW007 SCT012 OVC035
      TEMPO 3100/3104 18012G22KT 3SM -RA BR SCT006 OVC012
     FM310400 VRB06KT P6SM -SHRA SCT010 SCT025 OVC040
      TEMPO 3104/3108 16012G20KT 4SM -SHRA SCT010 BKN025 OVC040
     FM311000 12010KT 6SM -SHRA SCT015 OVC025
      AMD LTD TO CLD VIS AND WIND 3101/3110=

USA.gov is the U.S. government's official web portal to all federal, state and local government web resources and services.